Time;durP1;ratioP1;P1;durP2;ratioP2;P2;SDS_P1;SDS_P2;PMS_P1;PMS_P2;Temp;Humidity;BMP_temperature;BMP_pressure;BME280_temperature;BME280_humidity;BME280_pressure;Samples;Min_cycle;Max_cycle;Signal;HPM_P1;HPM_P2
2020/12/07 00:00:16;;;;;;;33.75;22.30;;;;;;;0.93;100.00;98255.06;2089728;28;20223;-85
2020/12/07 00:01:18;;;;;;;33.05;23.30;;;;;;;0.83;100.00;98242.69;2090116;28;20588;-84
2020/12/07 00:02:20;;;;;;;27.27;22.55;;;;;;;0.86;100.00;98250.03;2089405;28;20218;-84
2020/12/07 00:03:21;;;;;;;28.83;23.17;;;;;;;0.82;100.00;98246.34;2080917;28;20223;-84
2020/12/07 00:04:22;;;;;;;31.23;23.45;;;;;;;0.79;100.00;98233.75;2088400;28;20269;-84
2020/12/07 00:05:23;;;;;;;28.50;22.87;;;;;;;0.79;100.00;98239.00;2088975;28;20218;-84
2020/12/07 00:06:24;;;;;;;27.95;22.50;;;;;;;0.80;100.00;98230.06;2081202;28;20650;-84
2020/12/07 00:07:27;;;;;;;30.17;22.60;;;;;;;0.85;100.00;98240.59;2089269;28;20246;-84
2020/12/07 00:08:27;;;;;;;33.25;23.80;;;;;;;0.91;100.00;98242.22;2089148;28;20639;-84
2020/12/07 00:09:30;;;;;;;32.37;23.27;;;;;;;0.88;100.00;98247.97;2081049;28;20302;-84
2020/12/07 00:10:31;;;;;;;31.85;22.55;;;;;;;0.88;100.00;98250.59;2089144;28;20222;-84
2020/12/07 00:11:32;;;;;;;26.63;22.13;;;;;;;0.84;100.00;98245.03;2089359;28;20222;-84
2020/12/07 00:12:35;;;;;;;32.25;23.92;;;;;;;0.76;100.00;98236.84;2080814;28;20298;-84
2020/12/07 00:13:36;;;;;;;34.88;24.85;;;;;;;0.69;100.00;98221.31;2080513;28;20227;-83
2020/12/07 00:14:37;;;;;;;31.88;23.08;;;;;;;0.75;100.00;98237.91;2089068;28;20245;-83
2020/12/07 00:15:38;;;;;;;33.10;24.50;;;;;;;0.75;100.00;98238.69;2097113;28;20225;-84
2020/12/07 00:16:45;;;;;;;30.63;23.35;;;;;;;0.85;100.00;98237.97;2097063;28;20225;-84
2020/12/07 00:17:46;;;;;;;33.08;23.70;;;;;;;0.83;100.00;98237.44;2088697;28;20223;-84
2020/12/07 00:18:47;;;;;;;32.05;23.35;;;;;;;0.83;100.00;98230.34;2088139;28;20245;-84
2020/12/07 00:19:48;;;;;;;33.60;24.07;;;;;;;0.84;100.00;98234.53;2080519;28;20227;-85
2020/12/07 00:20:49;;;;;;;30.88;22.92;;;;;;;0.80;100.00;98219.56;2088907;28;20317;-84
2020/12/07 00:21:50;;;;;;;28.63;22.93;;;;;;;0.79;100.00;98218.78;2088821;28;20230;-85
2020/12/07 00:22:52;;;;;;;30.98;24.73;;;;;;;0.79;100.00;98229.28;2089049;28;20305;-85
2020/12/07 00:23:53;;;;;;;29.45;23.73;;;;;;;0.72;100.00;98220.03;2088725;28;20234;-84
2020/12/07 00:24:55;;;;;;;30.70;23.38;;;;;;;0.79;100.00;98218.00;2089552;28;20265;-84
2020/12/07 00:25:56;;;;;;;31.33;23.40;;;;;;;0.80;100.00;98216.94;2080748;28;20330;-84
2020/12/07 00:27:00;;;;;;;31.63;25.02;;;;;;;0.76;100.00;98232.38;2081074;28;20310;-84
2020/12/07 00:28:01;;;;;;;32.10;23.35;;;;;;;0.67;100.00;98225.25;2081268;28;20223;-84
2020/12/07 00:29:02;;;;;;;30.15;23.58;;;;;;;0.65;100.00;98238.63;2088798;28;20254;-85
2020/12/07 00:30:05;;;;;;;36.03;24.30;;;;;;;0.59;100.00;98236.19;2089889;28;20223;-85
2020/12/07 00:31:06;;;;;;;33.50;23.48;;;;;;;0.57;100.00;98242.50;2089510;28;20276;-85
2020/12/07 00:32:08;;;;;;;32.47;23.98;;;;;;;0.53;100.00;98235.38;2089778;28;20218;-83
2020/12/07 00:33:08;;;;;;;32.25;22.92;;;;;;;0.54;100.00;98245.63;2089629;28;20260;-84
2020/12/07 00:34:10;;;;;;;32.23;22.90;;;;;;;0.51;100.00;98237.44;2088752;28;20256;-84
2020/12/07 00:35:10;;;;;;;31.25;22.33;;;;;;;0.40;100.00;98222.69;2081450;28;20322;-85
2020/12/07 00:36:12;;;;;;;30.77;22.97;;;;;;;0.61;100.00;98237.56;2089114;28;20268;-85
2020/12/07 00:37:13;;;;;;;31.48;23.27;;;;;;;0.53;100.00;98230.94;2089991;28;20707;-85
2020/12/07 00:38:15;;;;;;;33.25;24.10;;;;;;;0.61;100.00;98236.72;2090211;28;20273;-85
2020/12/07 00:39:16;;;;;;;31.55;23.73;;;;;;;0.53;100.00;98225.69;2089125;28;20245;-85
2020/12/07 00:40:17;;;;;;;31.80;24.13;;;;;;;0.61;100.00;98234.09;2081421;28;20227;-85
2020/12/07 00:41:20;;;;;;;32.33;24.02;;;;;;;0.61;100.00;98232.31;2089383;28;20297;-85
2020/12/07 00:42:21;;;;;;;29.02;23.13;;;;;;;0.65;100.00;98225.50;2097418;28;20225;-85
2020/12/07 00:43:22;;;;;;;30.92;23.77;;;;;;;0.65;100.00;98228.13;2089154;28;20219;-85
2020/12/07 00:44:23;;;;;;;31.43;24.33;;;;;;;0.64;100.00;98226.53;2089582;28;20309;-85
2020/12/07 00:45:24;;;;;;;31.83;23.75;;;;;;;0.54;100.00;98224.63;2089445;28;20750;-85
2020/12/07 00:46:26;;;;;;;31.97;23.50;;;;;;;0.57;100.00;98224.13;2088694;28;20615;-84
2020/12/07 00:47:27;;;;;;;31.10;23.10;;;;;;;0.50;100.00;98207.00;2080463;28;20624;-83
2020/12/07 00:48:28;;;;;;;33.40;23.67;;;;;;;0.55;100.00;98222.81;2081093;28;20265;-84
2020/12/07 00:49:29;;;;;;;31.23;23.02;;;;;;;0.51;100.00;98222.50;2080415;28;20321;-84
2020/12/07 00:50:31;;;;;;;31.13;22.90;;;;;;;0.54;100.00;98214.13;2089098;28;20300;-84
2020/12/07 00:51:32;;;;;;;30.38;22.38;;;;;;;0.56;100.00;98219.91;2089124;28;20449;-84
2020/12/07 00:52:33;;;;;;;32.70;22.83;;;;;;;0.53;100.00;98215.19;2088875;28;20229;-83
2020/12/07 00:53:35;;;;;;;26.20;21.15;;;;;;;0.50;100.00;98223.53;2089134;28;20450;-83
2020/12/07 00:54:37;;;;;;;30.13;22.15;;;;;;;0.47;100.00;98221.44;2088595;28;20587;-84
2020/12/07 00:55:37;;;;;;;32.85;24.00;;;;;;;0.46;100.00;98209.34;2080552;28;20231;-84
2020/12/07 00:56:39;;;;;;;32.93;24.40;;;;;;;0.56;100.00;98214.66;2080254;28;20227;-84
2020/12/07 00:57:40;;;;;;;30.67;23.65;;;;;;;0.48;100.00;98204.63;2089536;28;20567;-85
2020/12/07 00:58:42;;;;;;;27.53;23.13;;;;;;;0.61;100.00;98215.72;2080410;28;20362;-85
2020/12/07 00:59:43;;;;;;;32.72;25.38;;;;;;;0.49;100.00;98197.56;2088758;28;20468;-85
2020/12/07 01:00:45;;;;;;;30.88;23.42;;;;;;;0.50;100.00;98207.00;2089053;28;20230;-85
2020/12/07 01:01:46;;;;;;;31.27;22.90;;;;;;;0.50;100.00;98204.38;2088593;28;20242;-86
2020/12/07 01:02:47;;;;;;;32.97;23.83;;;;;;;0.66;100.00;98221.03;2088923;28;20215;-85
2020/12/07 01:03:49;;;;;;;30.40;22.90;;;;;;;0.57;100.00;98216.25;2080800;28;20523;-85
2020/12/07 01:04:51;;;;;;;31.67;23.10;;;;;;;0.61;100.00;98208.69;2088602;28;20284;-85
2020/12/07 01:05:52;;;;;;;30.05;24.10;;;;;;;0.70;100.00;98214.25;2088823;28;20238;-83
2020/12/07 01:06:54;;;;;;;29.73;22.48;;;;;;;0.69;100.00;98200.31;2088756;28;20302;-85
2020/12/07 01:07:55;;;;;;;31.67;22.73;;;;;;;0.76;100.00;98189.59;2088812;28;20234;-85
2020/12/07 01:08:57;;;;;;;34.03;21.75;;;;;;;0.79;100.00;98202.22;2090033;28;20318;-85
2020/12/07 01:09:59;;;;;;;29.98;22.88;;;;;;;0.81;100.00;98202.75;2088443;28;20703;-85
2020/12/07 01:11:01;;;;;;;27.25;20.48;;;;;;;0.84;100.00;98195.16;2080702;28;20215;-85
2020/12/07 01:12:03;;;;;;;29.90;20.98;;;;;;;0.74;100.00;98194.31;2088698;28;20226;-85
2020/12/07 01:13:13;;;;;;;28.30;21.92;;;;;;;0.76;100.00;98194.84;2087778;28;20226;-84
2020/12/07 01:14:14;;;;;;;27.13;20.40;;;;;;;0.66;100.00;98176.41;2089084;28;20301;-86
2020/12/07 01:15:18;;;;;;;29.20;20.92;;;;;;;0.71;100.00;98186.97;2088353;28;20301;-85
2020/12/07 01:16:22;;;;;;;28.88;22.15;;;;;;;0.66;100.00;98181.66;2088545;28;20558;-85
2020/12/07 01:17:23;;;;;;;27.70;20.65;;;;;;;0.76;100.00;98192.22;2088043;28;20269;-84
2020/12/07 01:18:33;;;;;;;25.33;20.10;;;;;;;0.89;100.00;98196.25;2088489;28;20226;-84
2020/12/07 01:19:36;;;;;;;27.67;21.73;;;;;;;0.84;100.00;98191.75;2080837;28;20242;-85
2020/12/07 01:20:37;;;;;;;27.00;21.40;;;;;;;0.72;100.00;98170.16;2088221;28;20230;-82
2020/12/07 01:21:38;;;;;;;29.23;21.50;;;;;;;0.80;100.00;98183.59;2088877;28;20228;-84
2020/12/07 01:22:40;;;;;;;29.80;20.40;;;;;;;0.82;100.00;98180.72;2088351;28;20278;-85
2020/12/07 01:23:44;;;;;;;26.52;21.70;;;;;;;0.81;100.00;98181.75;2088023;28;20222;-85
2020/12/07 01:24:46;;;;;;;29.10;20.67;;;;;;;0.79;100.00;98178.59;2088518;28;20223;-85
2020/12/07 01:25:47;;;;;;;25.75;20.70;;;;;;;0.84;100.00;98187.28;2080217;28;20684;-85
2020/12/07 01:26:48;;;;;;;27.95;21.77;;;;;;;0.77;100.00;98178.03;2080768;28;20724;-85
2020/12/07 01:27:51;;;;;;;28.02;20.92;;;;;;;0.75;100.00;98186.19;2080489;28;20717;-85
2020/12/07 01:28:57;;;;;;;24.05;19.90;;;;;;;0.69;100.00;98194.28;2080411;28;21863;-84
2020/12/07 01:29:58;;;;;;;26.02;20.70;;;;;;;0.60;100.00;98170.31;2088368;28;20681;-85
2020/12/07 01:30:59;;;;;;;27.42;21.05;;;;;;;0.66;100.00;98177.19;2088094;28;20218;-85
2020/12/07 01:32:01;;;;;;;24.92;19.85;;;;;;;0.71;100.00;98179.06;2080584;28;20578;-84
2020/12/07 01:33:02;;;;;;;25.25;19.58;;;;;;;0.66;100.00;98174.56;2088521;28;20222;-85
2020/12/07 01:34:07;;;;;;;29.25;21.63;;;;;;;0.68;100.00;98184.81;2096550;28;20568;-85
2020/12/07 01:35:10;;;;;;;25.10;20.35;;;;;;;0.65;100.00;98182.72;2088341;28;20222;-85
2020/12/07 01:36:12;;;;;;;27.87;21.50;;;;;;;0.53;100.00;98167.94;2080133;28;20247;-85
2020/12/07 01:37:13;;;;;;;28.98;21.23;;;;;;;0.64;100.00;98174.03;2080721;28;20231;-85
2020/12/07 01:38:18;;;;;;;27.60;20.67;;;;;;;0.59;100.00;98166.13;2080461;28;20715;-85
2020/12/07 01:39:19;;;;;;;26.90;20.08;;;;;;;0.67;100.00;98178.78;2080188;28;20243;-85
2020/12/07 01:40:24;;;;;;;28.25;20.63;;;;;;;0.64;100.00;98174.03;2080651;28;20223;-86
2020/12/07 01:41:25;;;;;;;27.65;21.73;;;;;;;0.60;100.00;98161.66;2088366;28;20239;-85
2020/12/07 01:42:27;;;;;;;23.70;21.00;;;;;;;0.68;100.00;98163.81;2088527;28;20286;-85
2020/12/07 01:43:29;;;;;;;27.05;21.83;;;;;;;0.69;100.00;98173.28;2088474;28;20246;-85
2020/12/07 01:44:31;;;;;;;27.70;21.77;;;;;;;0.63;100.00;98161.19;2088285;28;20277;-86
2020/12/07 01:45:32;;;;;;;28.88;21.95;;;;;;;0.59;100.00;98165.34;2080515;28;20219;-85
2020/12/07 01:46:34;;;;;;;25.40;20.60;;;;;;;0.55;100.00;98168.47;2079806;28;20306;-85
2020/12/07 01:47:37;;;;;;;27.90;21.85;;;;;;;0.62;100.00;98186.63;2088205;28;20263;-84
2020/12/07 01:48:45;;;;;;;27.23;20.80;;;;;;;0.70;100.00;98182.75;2080719;28;20223;-84
2020/12/07 01:49:49;;;;;;;24.95;20.35;;;;;;;0.50;100.00;98163.19;2080368;28;20325;-84
2020/12/07 01:50:53;;;;;;;29.77;21.80;;;;;;;0.49;100.00;98176.56;2088163;28;20305;-81
2020/12/07 01:51:54;;;;;;;26.27;20.35;;;;;;;0.54;100.00;98179.22;2088213;28;20238;-84
2020/12/07 01:52:55;;;;;;;28.73;21.10;;;;;;;0.53;100.00;98180.28;2088300;28;20703;-85
2020/12/07 01:53:56;;;;;;;27.48;21.90;;;;;;;0.47;100.00;98178.66;2079678;28;20227;-85
2020/12/07 01:54:58;;;;;;;26.60;21.00;;;;;;;0.47;100.00;98178.66;2088123;28;20226;-85
2020/12/07 01:56:11;;;;;;;27.05;21.77;;;;;;;0.52;100.00;98174.25;2081200;28;20223;-83
2020/12/07 01:57:13;;;;;;;28.45;22.35;;;;;;;0.55;100.00;98178.19;2080468;28;20227;-85
2020/12/07 01:58:14;;;;;;;31.60;23.02;;;;;;;0.41;100.00;98153.41;2080272;28;20223;-85
2020/12/07 01:59:16;;;;;;;29.95;21.92;;;;;;;0.52;100.00;98176.88;2079874;28;20701;-85
2020/12/07 02:00:19;;;;;;;27.65;21.55;;;;;;;0.49;100.00;98179.19;2080389;28;20227;-85
2020/12/07 02:01:20;;;;;;;26.33;20.97;;;;;;;0.57;100.00;98176.88;2088723;28;20234;-85
2020/12/07 02:02:22;;;;;;;25.88;20.67;;;;;;;0.55;100.00;98171.09;2096318;28;20214;-85
2020/12/07 02:03:24;;;;;;;26.48;20.40;;;;;;;0.58;100.00;98175.03;2087539;28;20222;-84
2020/12/07 02:04:25;;;;;;;28.20;21.63;;;;;;;0.50;100.00;98178.13;2080121;28;20227;-85
2020/12/07 02:05:27;;;;;;;34.42;21.73;;;;;;;0.46;100.00;98169.19;2087801;28;20231;-86
2020/12/07 02:06:31;;;;;;;27.35;21.55;;;;;;;0.52;100.00;98181.28;2088224;28;20731;-85
2020/12/07 02:07:33;;;;;;;28.50;22.25;;;;;;;0.52;100.00;98176.88;2088997;28;20225;-84
2020/12/07 02:08:34;;;;;;;29.38;20.65;;;;;;;0.60;100.00;98182.66;2087889;28;20246;-84
2020/12/07 02:09:44;;;;;;;29.50;22.75;;;;;;;0.55;100.00;98176.34;2080309;28;20225;-85
2020/12/07 02:10:46;;;;;;;26.52;20.17;;;;;;;0.57;100.00;98174.25;2088212;28;20222;-85
2020/12/07 02:11:50;;;;;;;25.63;19.67;;;;;;;0.52;100.00;98162.94;2088144;28;20223;-85
2020/12/07 02:12:52;;;;;;;25.10;21.25;;;;;;;0.59;100.00;98165.34;2087570;28;20245;-85
2020/12/07 02:13:53;;;;;;;29.00;21.00;;;;;;;0.49;100.00;98155.56;2079685;28;20235;-85
2020/12/07 02:14:57;;;;;;;28.92;22.05;;;;;;;0.53;100.00;98156.66;2088185;28;20588;-84
2020/12/07 02:15:58;;;;;;;28.37;23.50;;;;;;;0.54;100.00;98166.13;2088058;28;20272;-85
2020/12/07 02:17:06;;;;;;;26.65;21.40;;;;;;;0.50;100.00;98163.19;2080654;28;20582;-85
2020/12/07 02:18:08;;;;;;;30.15;21.60;;;;;;;0.33;100.00;98149.41;2087590;28;20230;-82
2020/12/07 02:19:09;;;;;;;27.83;21.00;;;;;;;0.44;100.00;98163.44;2088520;28;20225;-85
2020/12/07 02:20:19;;;;;;;28.50;20.85;;;;;;;0.42;100.00;98155.00;2080583;28;20346;-84
2020/12/07 02:21:20;;;;;;;28.23;21.83;;;;;;;0.48;100.00;98160.03;2087976;28;20606;-85
2020/12/07 02:22:30;;;;;;;29.88;21.20;;;;;;;0.48;100.00;98165.28;2080830;28;20223;-85
2020/12/07 02:23:55;;;;;;;30.08;21.98;;;;;;;0.40;100.00;98159.72;2082702;28;20288;-85
2020/12/07 02:24:59;;;;;;;27.90;21.33;;;;;;;0.30;100.00;98146.53;2080733;28;20227;-85
2020/12/07 02:26:04;;;;;;;31.75;22.05;;;;;;;0.28;100.00;98136.28;2088025;28;20705;-84
2020/12/07 02:27:05;;;;;;;25.52;20.73;;;;;;;0.42;100.00;98161.03;2080929;28;20226;-85
2020/12/07 02:28:08;;;;;;;26.33;20.65;;;;;;;0.39;100.00;98156.28;2079531;28;20255;-84
2020/12/07 02:29:09;;;;;;;29.25;22.58;;;;;;;0.37;100.00;98161.00;2089944;28;20327;-85
2020/12/07 02:30:20;;;;;;;26.48;21.67;;;;;;;0.40;100.00;98157.88;2089279;28;20620;-85
2020/12/07 02:31:21;;;;;;;27.77;21.73;;;;;;;0.33;100.00;98130.28;2089288;28;20219;-85
2020/12/07 02:32:23;;;;;;;28.13;20.85;;;;;;;0.34;100.00;98144.97;2089922;28;20222;-84
2020/12/07 02:33:40;;;;;;;25.45;20.85;;;;;;;0.37;100.00;98137.41;2088695;28;20230;-86
2020/12/07 02:34:43;;;;;;;24.75;20.67;;;;;;;0.31;100.00;98130.53;2081332;28;20223;-86
2020/12/07 02:35:47;;;;;;;25.65;19.85;;;;;;;0.43;100.00;98140.81;2080434;28;20689;-86
2020/12/07 02:36:49;;;;;;;27.92;20.77;;;;;;;0.44;100.00;98131.94;2082102;28;20614;-84
2020/12/07 02:37:55;;;;;;;26.35;21.15;;;;;;;0.50;100.00;98133.53;2081925;28;20735;-85
2020/12/07 02:38:59;;;;;;;24.00;18.90;;;;;;;0.35;100.00;98108.00;2081320;28;20306;-85
2020/12/07 02:40:11;;;;;;;27.15;19.80;;;;;;;0.46;100.00;98125.38;2082507;28;20223;-86
2020/12/07 02:41:12;;;;;;;26.20;21.45;;;;;;;0.52;100.00;98139.31;2080716;28;20226;-85
2020/12/07 02:42:15;;;;;;;27.70;20.90;;;;;;;0.37;100.00;98123.50;2081023;28;20223;-85
2020/12/07 02:43:16;;;;;;;26.55;21.10;;;;;;;0.42;100.00;98132.16;2081795;28;20219;-85
2020/12/07 02:44:18;;;;;;;24.00;19.75;;;;;;;0.43;100.00;98131.13;2081293;28;20219;-85
2020/12/07 02:45:23;;;;;;;28.77;21.33;;;;;;;0.38;100.00;98138.97;2089421;28;20292;-85
2020/12/07 02:46:50;;;;;;;25.35;20.15;;;;;;;0.51;100.00;98135.91;2085105;28;20222;-87
2020/12/07 02:47:55;;;;;;;23.25;19.58;;;;;;;0.51;100.00;98138.53;2087458;28;20246;-86
2020/12/07 02:48:55;;;;;;;26.75;21.00;;;;;;;0.44;100.00;98135.34;2088708;28;20239;-85
2020/12/07 02:49:57;;;;;;;26.85;21.02;;;;;;;0.47;100.00;98128.78;2080761;28;20241;-85
2020/12/07 02:51:01;;;;;;;22.83;20.08;;;;;;;0.44;100.00;98137.97;2072237;28;20231;-83
2020/12/07 02:52:04;;;;;;;34.10;21.63;;;;;;;0.51;100.00;98143.75;2080101;28;20635;-85
2020/12/07 02:53:10;;;;;;;23.30;20.60;;;;;;;0.48;100.00;98138.25;2087529;28;20226;-83
2020/12/07 02:54:13;;;;;;;24.23;21.55;;;;;;;0.41;100.00;98127.19;2087734;28;20660;-85
2020/12/07 02:55:14;;;;;;;24.67;19.75;;;;;;;0.41;100.00;98127.19;2079648;28;20216;-83
2020/12/07 02:56:22;;;;;;;26.45;20.08;;;;;;;0.42;100.00;98128.75;2080438;28;20294;-86
2020/12/07 02:57:27;;;;;;;24.83;20.27;;;;;;;0.38;100.00;98127.69;2080323;28;20659;-83
2020/12/07 02:58:28;;;;;;;22.90;18.92;;;;;;;0.42;100.00;98131.38;2088044;28;20695;-84
2020/12/07 02:59:31;;;;;;;27.63;21.83;;;;;;;0.43;100.00;98135.56;2088034;28;20219;-84
2020/12/07 03:00:33;;;;;;;25.47;19.67;;;;;;;0.40;100.00;98136.88;2087663;28;20230;-84
2020/12/07 03:01:34;;;;;;;25.25;19.17;;;;;;;0.31;100.00;98117.41;2079754;28;20697;-84
2020/12/07 03:02:36;;;;;;;26.20;19.70;;;;;;;0.38;100.00;98132.94;2087873;28;20219;-84
2020/12/07 03:03:40;;;;;;;27.00;20.48;;;;;;;0.32;100.00;98118.19;2080167;28;20668;-84
2020/12/07 03:04:42;;;;;;;24.98;20.60;;;;;;;0.36;100.00;98138.44;2079747;28;20303;-84
2020/12/07 03:05:44;;;;;;;24.42;21.20;;;;;;;0.32;100.00;98126.84;2087747;28;20226;-85
2020/12/07 03:06:51;;;;;;;28.48;21.23;;;;;;;0.40;100.00;98142.13;2080300;28;20595;-85
2020/12/07 03:07:52;;;;;;;24.38;20.38;;;;;;;0.30;100.00;98126.31;2078998;28;20231;-83
2020/12/07 03:08:55;;;;;;;25.77;21.58;;;;;;;0.41;100.00;98138.47;2080001;28;20243;-85
2020/12/07 03:09:57;;;;;;;27.05;21.73;;;;;;;0.39;100.00;98137.94;2088596;28;20266;-85
2020/12/07 03:10:59;;;;;;;22.92;20.38;;;;;;;0.25;100.00;98126.28;2087832;28;20260;-84
2020/12/07 03:12:05;;;;;;;24.17;20.88;;;;;;;0.18;100.00;98115.22;2079994;28;20215;-85
2020/12/07 03:13:07;;;;;;;26.13;20.27;;;;;;;0.21;100.00;98122.59;2077713;28;20246;-81
2020/12/07 03:14:10;;;;;;;28.73;21.42;;;;;;;0.32;100.00;98126.06;2080112;28;20654;-85
2020/12/07 03:15:12;;;;;;;24.83;20.17;;;;;;;0.28;100.00;98117.91;2079952;28;20257;-84
2020/12/07 03:16:17;;;;;;;27.30;21.95;;;;;;;0.31;100.00;98133.16;2080535;28;20275;-84
2020/12/07 03:17:18;;;;;;;22.00;19.55;;;;;;;0.37;100.00;98116.41;2079622;28;20230;-85
2020/12/07 03:18:21;;;;;;;22.75;19.42;;;;;;;0.41;100.00;98111.44;2080006;28;20274;-85
2020/12/07 03:19:29;;;;;;;23.55;19.85;;;;;;;0.30;100.00;98110.59;2087768;28;20222;-85
2020/12/07 03:20:31;;;;;;;25.10;20.33;;;;;;;0.33;100.00;98123.19;2088679;28;20218;-85
2020/12/07 03:21:33;;;;;;;25.75;20.70;;;;;;;0.37;100.00;98126.91;2088242;28;20682;-84
2020/12/07 03:22:41;;;;;;;23.48;21.00;;;;;;;0.54;100.00;98130.16;2087280;28;20233;-83
2020/12/07 03:23:42;;;;;;;24.17;20.40;;;;;;;0.39;100.00;98124.03;2088037;28;20250;-84
2020/12/07 03:24:49;;;;;;;26.00;20.58;;;;;;;0.39;100.00;98119.56;2089199;28;20215;-84
2020/12/07 03:25:49;;;;;;;26.20;20.80;;;;;;;0.33;100.00;98131.06;2087994;28;20230;-84
2020/12/07 03:26:53;;;;;;;22.67;19.85;;;;;;;0.36;100.00;98135.81;2086024;28;20233;-83
2020/12/07 03:27:57;;;;;;;22.70;20.17;;;;;;;0.39;100.00;98126.66;2079922;28;20231;-84
2020/12/07 03:28:59;;;;;;;22.63;18.67;;;;;;;0.40;100.00;98136.09;2079578;28;20220;-85
2020/12/07 03:30:01;;;;;;;25.90;20.10;;;;;;;0.39;100.00;98134.50;2088017;28;20301;-85
2020/12/07 03:31:04;;;;;;;23.48;19.85;;;;;;;0.38;100.00;98132.94;2079921;28;20250;-85
2020/12/07 03:32:05;;;;;;;25.43;19.93;;;;;;;0.31;100.00;98122.66;2079955;28;20219;-85
2020/12/07 03:33:08;;;;;;;24.15;20.20;;;;;;;0.38;100.00;98130.31;2085814;28;20272;-86
2020/12/07 03:34:12;;;;;;;28.13;20.75;;;;;;;0.38;100.00;98128.47;2087405;28;20268;-86
2020/12/07 03:35:13;;;;;;;22.70;19.02;;;;;;;0.38;100.00;98128.47;2088150;28;20221;-84
2020/12/07 03:36:16;;;;;;;25.55;21.02;;;;;;;0.40;100.00;98126.38;2079541;28;20223;-86
2020/12/07 03:37:19;;;;;;;23.05;20.63;;;;;;;0.39;100.00;98121.41;2080227;28;20272;-86
2020/12/07 03:38:40;;;;;;;24.65;21.13;;;;;;;0.28;100.00;98099.56;2080979;28;20231;-86
2020/12/07 03:39:41;;;;;;;23.60;20.92;;;;;;;0.46;100.00;98117.50;2079843;28;20244;-84
2020/12/07 03:40:44;;;;;;;23.08;20.45;;;;;;;0.38;100.00;98107.50;2079702;28;20305;-85
2020/12/07 03:41:56;;;;;;;25.00;19.80;;;;;;;0.46;100.00;98114.09;2078730;28;20866;-85
2020/12/07 03:42:58;;;;;;;22.27;19.53;;;;;;;0.36;100.00;98099.09;2071437;28;20220;-85
2020/12/07 03:43:59;;;;;;;22.80;19.95;;;;;;;0.39;100.00;98090.69;2079277;28;20604;-85
2020/12/07 03:45:03;;;;;;;22.83;20.02;;;;;;;0.49;100.00;98113.59;2071961;28;20240;-86
2020/12/07 03:46:05;;;;;;;23.25;20.75;;;;;;;0.47;100.00;98124.34;2079497;28;20246;-85
2020/12/07 03:47:08;;;;;;;21.27;18.63;;;;;;;0.43;100.00;98114.59;2079106;28;20215;-85
2020/12/07 03:48:09;;;;;;;23.20;19.33;;;;;;;0.45;100.00;98128.28;2071641;28;20769;-85
2020/12/07 03:49:11;;;;;;;21.10;18.73;;;;;;;0.36;100.00;98116.66;2079259;28;20701;-86
2020/12/07 03:50:12;;;;;;;25.30;19.42;;;;;;;0.43;100.00;98118.00;2079387;28;20242;-84
2020/12/07 03:51:17;;;;;;;23.95;18.67;;;;;;;0.49;100.00;98114.38;2072005;28;20702;-84
2020/12/07 03:52:20;;;;;;;22.85;19.90;;;;;;;0.51;100.00;98117.53;2071635;28;20227;-84
2020/12/07 03:53:22;;;;;;;22.65;19.77;;;;;;;0.51;100.00;98117.53;2071349;28;20251;-84
2020/12/07 03:54:23;;;;;;;30.58;18.70;;;;;;;0.52;100.00;98103.38;2080380;28;20223;-83
2020/12/07 03:55:25;;;;;;;24.38;18.65;;;;;;;0.42;100.00;98098.06;2081103;28;20230;-84
2020/12/07 03:56:30;;;;;;;22.95;18.55;;;;;;;0.43;100.00;98099.63;2073394;28;20240;-87
2020/12/07 03:57:32;;;;;;;22.90;19.25;;;;;;;0.50;100.00;98108.06;2072996;28;20220;-85
2020/12/07 03:58:34;;;;;;;22.00;19.10;;;;;;;0.51;100.00;98101.78;2072726;28;20306;-84
2020/12/07 03:59:35;;;;;;;23.50;19.33;;;;;;;0.51;100.00;98111.50;2080915;28;20733;-84
2020/12/07 04:00:37;;;;;;;22.70;18.55;;;;;;;0.46;100.00;98098.34;2080804;28;20261;-83
2020/12/07 04:01:42;;;;;;;23.52;19.35;;;;;;;0.61;100.00;98106.31;2073181;28;22252;-85
2020/12/07 04:02:44;;;;;;;24.05;19.55;;;;;;;0.57;100.00;98106.03;2073200;28;20255;-84
2020/12/07 04:03:56;;;;;;;25.35;18.92;;;;;;;0.49;100.00;98095.22;2081323;28;20348;-84
2020/12/07 04:05:02;;;;;;;22.80;20.08;;;;;;;0.37;100.00;98090.19;2080855;28;20257;-84
2020/12/07 04:06:11;;;;;;;20.17;18.10;;;;;;;0.52;100.00;98100.75;2073695;28;20243;-85
2020/12/07 04:07:12;;;;;;;22.10;18.88;;;;;;;0.52;100.00;98100.75;2073302;28;20232;-84
2020/12/07 04:08:14;;;;;;;22.20;19.73;;;;;;;0.46;100.00;98083.41;2073088;28;20220;-86
2020/12/07 04:09:17;;;;;;;23.30;19.05;;;;;;;0.58;100.00;98101.56;2080998;28;20238;-83
2020/12/07 04:10:19;;;;;;;23.95;20.77;;;;;;;0.47;100.00;98090.22;2081228;28;20234;-84
2020/12/07 04:11:20;;;;;;;23.83;18.80;;;;;;;0.65;100.00;98096.09;2081826;28;20223;-86
2020/12/07 04:12:21;;;;;;;23.03;20.50;;;;;;;0.69;100.00;98103.19;2081362;28;20231;-85
2020/12/07 04:13:22;;;;;;;23.30;20.08;;;;;;;0.70;100.00;98114.50;2089537;28;20246;-83
2020/12/07 04:14:24;;;;;;;24.83;19.37;;;;;;;0.64;100.00;98105.00;2089022;28;20218;-83
2020/12/07 04:15:24;;;;;;;28.15;20.77;;;;;;;0.65;100.00;98096.09;2088997;28;20261;-83
2020/12/07 04:16:26;;;;;;;20.93;18.73;;;;;;;0.60;100.00;98096.84;2089158;28;20234;-85
2020/12/07 04:17:27;;;;;;;22.88;19.60;;;;;;;0.63;100.00;98092.94;2089044;28;20231;-85
2020/12/07 04:18:29;;;;;;;27.17;19.70;;;;;;;0.55;100.00;98092.38;2090035;28;20268;-83
2020/12/07 04:19:30;;;;;;;21.60;17.98;;;;;;;0.62;100.00;98104.47;2089176;28;20681;-84
2020/12/07 04:20:31;;;;;;;21.43;18.77;;;;;;;0.60;100.00;98098.69;2080918;28;20578;-84
2020/12/07 04:21:32;;;;;;;19.88;17.80;;;;;;;0.55;100.00;98092.38;2081099;28;20227;-84
2020/12/07 04:22:33;;;;;;;22.67;19.03;;;;;;;0.65;100.00;98093.47;2080701;28;20261;-85
2020/12/07 04:23:34;;;;;;;20.58;18.27;;;;;;;0.49;100.00;98066.34;2089007;28;20351;-84
2020/12/07 04:24:35;;;;;;;20.23;18.00;;;;;;;0.63;100.00;98104.22;2097366;28;20226;-84
2020/12/07 04:25:37;;;;;;;20.75;18.23;;;;;;;0.65;100.00;98101.34;2097201;28;20279;-84
2020/12/07 04:26:39;;;;;;;21.58;18.63;;;;;;;0.65;100.00;98106.59;2088835;28;20226;-85
2020/12/07 04:27:39;;;;;;;20.50;17.58;;;;;;;0.74;100.00;98110.31;2088958;28;20229;-86
2020/12/07 04:28:41;;;;;;;20.50;18.30;;;;;;;0.66;100.00;98093.22;2080569;28;20780;-86
2020/12/07 04:29:42;;;;;;;20.85;18.45;;;;;;;0.79;100.00;98099.84;2081153;28;20232;-86
2020/12/07 04:30:43;;;;;;;20.27;18.07;;;;;;;0.82;100.00;98115.06;2089020;28;20233;-85
2020/12/07 04:31:44;;;;;;;20.65;18.52;;;;;;;0.84;100.00;98108.50;2089565;28;20681;-84
2020/12/07 04:32:45;;;;;;;20.20;18.10;;;;;;;0.86;100.00;98108.25;2089043;28;20218;-84
2020/12/07 04:33:47;;;;;;;19.52;17.58;;;;;;;0.92;100.00;98106.44;2088886;28;20223;-84
2020/12/07 04:34:47;;;;;;;20.83;18.73;;;;;;;0.92;100.00;98101.19;2088920;28;20784;-84
2020/12/07 04:35:49;;;;;;;22.53;18.57;;;;;;;0.91;100.00;98120.63;2088736;28;20593;-84
2020/12/07 04:36:54;;;;;;;18.95;16.95;;;;;;;0.97;100.00;98125.66;2088677;28;20257;-84
2020/12/07 04:37:55;;;;;;;19.90;17.90;;;;;;;0.94;100.00;98120.91;2080678;28;20258;-84
2020/12/07 04:38:56;;;;;;;20.33;18.30;;;;;;;0.95;100.00;98121.69;2088928;28;20219;-85
2020/12/07 04:39:57;;;;;;;20.85;18.75;;;;;;;1.02;100.00;98124.88;2097308;28;20229;-84
2020/12/07 04:41:00;;;;;;;22.13;18.83;;;;;;;1.01;100.00;98112.78;2088709;28;20246;-85
2020/12/07 04:42:02;;;;;;;20.00;17.90;;;;;;;1.03;100.00;98108.84;2081157;28;20223;-85
2020/12/07 04:43:04;;;;;;;19.48;17.50;;;;;;;0.96;100.00;98100.44;2080402;28;20681;-85
2020/12/07 04:44:04;;;;;;;21.35;19.20;;;;;;;1.09;100.00;98123.59;2080428;28;20690;-84
2020/12/07 04:45:06;;;;;;;20.58;18.08;;;;;;;1.04;100.00;98120.97;2081027;28;20224;-84
2020/12/07 04:46:07;;;;;;;20.33;18.13;;;;;;;0.99;100.00;98117.50;2088528;28;20254;-82
2020/12/07 04:47:09;;;;;;;21.70;18.50;;;;;;;0.97;100.00;98117.78;2088969;28;20226;-84
2020/12/07 04:48:11;;;;;;;20.38;18.20;;;;;;;0.99;100.00;98101.75;2088705;28;20223;-84